sensor_id;sensor_type;location;lat;lon;timestamp;temperature;humidity
19829;DHT22;10075;50.924;4.396;2023-09-30T00:02:26;14.60;99.90
19829;DHT22;10075;50.924;4.396;2023-09-30T00:04:54;14.60;99.90
19829;DHT22;10075;50.924;4.396;2023-09-30T00:07:21;14.60;99.90
19829;DHT22;10075;50.924;4.396;2023-09-30T00:09:48;14.60;99.90
19829;DHT22;10075;50.924;4.396;2023-09-30T00:12:18;14.60;99.90
19829;DHT22;10075;50.924;4.396;2023-09-30T00:14:46;14.60;99.90
19829;DHT22;10075;50.924;4.396;2023-09-30T00:17:13;14.60;99.90
19829;DHT22;10075;50.924;4.396;2023-09-30T00:19:41;14.60;99.90
19829;DHT22;10075;50.924;4.396;2023-09-30T00:22:08;14.50;99.90
19829;DHT22;10075;50.924;4.396;2023-09-30T00:24:35;14.40;99.90
19829;DHT22;10075;50.924;4.396;2023-09-30T00:27:02;14.50;99.90
19829;DHT22;10075;50.924;4.396;2023-09-30T00:29:30;14.50;99.90
19829;DHT22;10075;50.924;4.396;2023-09-30T00:32:01;14.50;99.90
19829;DHT22;10075;50.924;4.396;2023-09-30T00:34:28;14.50;99.90
19829;DHT22;10075;50.924;4.396;2023-09-30T00:36:55;14.40;99.90
19829;DHT22;10075;50.924;4.396;2023-09-30T00:39:22;14.40;99.90
19829;DHT22;10075;50.924;4.396;2023-09-30T00:41:52;14.40;99.90
19829;DHT22;10075;50.924;4.396;2023-09-30T00:44:20;14.40;99.90
19829;DHT22;10075;50.924;4.396;2023-09-30T00:46:48;14.40;99.90
19829;DHT22;10075;50.924;4.396;2023-09-30T00:49:15;14.40;99.90
19829;DHT22;10075;50.924;4.396;2023-09-30T00:51:44;14.30;99.90
19829;DHT22;10075;50.924;4.396;2023-09-30T00:54:11;14.30;99.90
19829;DHT22;10075;50.924;4.396;2023-09-30T00:56:44;14.20;99.90
19829;DHT22;10075;50.924;4.396;2023-09-30T00:59:11;14.40;99.90
19829;DHT22;10075;50.924;4.396;2023-09-30T01:01:38;14.40;99.90
19829;DHT22;10075;50.924;4.396;2023-09-30T01:04:07;14.40;99.90
19829;DHT22;10075;50.924;4.396;2023-09-30T01:06:35;14.30;99.90
19829;DHT22;10075;50.924;4.396;2023-09-30T01:09:02;14.40;99.90
19829;DHT22;10075;50.924;4.396;2023-09-30T01:11:30;14.30;99.90
19829;DHT22;10075;50.924;4.396;2023-09-30T01:13:57;14.40;99.90
19829;DHT22;10075;50.924;4.396;2023-09-30T01:16:24;14.30;99.90
19829;DHT22;10075;50.924;4.396;2023-09-30T01:18:51;14.40;99.90
19829;DHT22;10075;50.924;4.396;2023-09-30T01:21:20;14.30;99.90
19829;DHT22;10075;50.924;4.396;2023-09-30T01:23:48;14.30;99.90
19829;DHT22;10075;50.924;4.396;2023-09-30T01:26:15;14.30;99.90
19829;DHT22;10075;50.924;4.396;2023-09-30T01:28:42;14.20;99.90
19829;DHT22;10075;50.924;4.396;2023-09-30T01:31:09;14.20;99.90
19829;DHT22;10075;50.924;4.396;2023-09-30T01:33:36;14.20;99.90
19829;DHT22;10075;50.924;4.396;2023-09-30T01:36:04;14.20;99.90
19829;DHT22;10075;50.924;4.396;2023-09-30T01:38:31;14.20;99.90
19829;DHT22;10075;50.924;4.396;2023-09-30T01:40:59;14.20;99.90
19829;DHT22;10075;50.924;4.396;2023-09-30T01:43:26;14.10;99.90
19829;DHT22;10075;50.924;4.396;2023-09-30T01:45:53;14.10;99.90
19829;DHT22;10075;50.924;4.396;2023-09-30T01:48:20;14.10;99.90
19829;DHT22;10075;50.924;4.396;2023-09-30T01:50:47;14.10;99.90
19829;DHT22;10075;50.924;4.396;2023-09-30T01:53:14;14.10;99.90
19829;DHT22;10075;50.924;4.396;2023-09-30T01:55:41;14.10;99.90
19829;DHT22;10075;50.924;4.396;2023-09-30T01:58:11;14.10;99.90
19829;DHT22;10075;50.924;4.396;2023-09-30T02:00:38;14.10;99.90
19829;DHT22;10075;50.924;4.396;2023-09-30T02:03:05;14.00;99.90
19829;DHT22;10075;50.924;4.396;2023-09-30T02:05:32;13.90;99.90
19829;DHT22;10075;50.924;4.396;2023-09-30T02:07:59;13.90;99.90
19829;DHT22;10075;50.924;4.396;2023-09-30T02:10:31;13.90;99.90
19829;DHT22;10075;50.924;4.396;2023-09-30T02:12:59;13.90;99.90
19829;DHT22;10075;50.924;4.396;2023-09-30T02:15:28;13.90;99.90
19829;DHT22;10075;50.924;4.396;2023-09-30T02:17:55;13.90;99.90
19829;DHT22;10075;50.924;4.396;2023-09-30T02:20:21;13.90;99.90
19829;DHT22;10075;50.924;4.396;2023-09-30T02:22:51;13.90;99.90
19829;DHT22;10075;50.924;4.396;2023-09-30T02:25:19;13.80;99.90
19829;DHT22;10075;50.924;4.396;2023-09-30T02:27:47;13.80;99.90
19829;DHT22;10075;50.924;4.396;2023-09-30T02:30:15;13.80;99.90
19829;DHT22;10075;50.924;4.396;2023-09-30T02:32:44;13.80;99.90
19829;DHT22;10075;50.924;4.396;2023-09-30T02:35:12;13.80;99.90
19829;DHT22;10075;50.924;4.396;2023-09-30T02:37:40;13.70;99.90
19829;DHT22;10075;50.924;4.396;2023-09-30T02:40:08;13.80;99.90
19829;DHT22;10075;50.924;4.396;2023-09-30T02:42:36;13.80;99.90
19829;DHT22;10075;50.924;4.396;2023-09-30T02:45:04;13.80;99.90
19829;DHT22;10075;50.924;4.396;2023-09-30T02:47:31;13.80;99.90
19829;DHT22;10075;50.924;4.396;2023-09-30T02:50:00;13.80;99.90
19829;DHT22;10075;50.924;4.396;2023-09-30T02:52:27;13.80;99.90
19829;DHT22;10075;50.924;4.396;2023-09-30T02:54:54;13.80;99.90
19829;DHT22;10075;50.924;4.396;2023-09-30T02:57:23;13.80;99.90
19829;DHT22;10075;50.924;4.396;2023-09-30T02:59:50;13.90;99.90
19829;DHT22;10075;50.924;4.396;2023-09-30T03:02:19;13.90;99.90
19829;DHT22;10075;50.924;4.396;2023-09-30T03:04:47;13.90;99.90
19829;DHT22;10075;50.924;4.396;2023-09-30T03:07:18;13.90;99.90
19829;DHT22;10075;50.924;4.396;2023-09-30T03:09:46;13.90;99.90
19829;DHT22;10075;50.924;4.396;2023-09-30T03:12:13;14.00;99.90
19829;DHT22;10075;50.924;4.396;2023-09-30T03:14:40;14.00;99.90
19829;DHT22;10075;50.924;4.396;2023-09-30T03:17:08;14.00;99.90
19829;DHT22;10075;50.924;4.396;2023-09-30T03:19:37;14.00;99.90
19829;DHT22;10075;50.924;4.396;2023-09-30T03:22:05;13.80;99.90
19829;DHT22;10075;50.924;4.396;2023-09-30T03:24:38;13.90;99.90
19829;DHT22;10075;50.924;4.396;2023-09-30T03:27:05;14.00;99.90
19829;DHT22;10075;50.924;4.396;2023-09-30T03:29:35;13.90;99.90
19829;DHT22;10075;50.924;4.396;2023-09-30T03:32:02;13.90;99.90
19829;DHT22;10075;50.924;4.396;2023-09-30T03:34:29;13.90;99.90
19829;DHT22;10075;50.924;4.396;2023-09-30T03:36:56;13.90;99.90
19829;DHT22;10075;50.924;4.396;2023-09-30T03:39:24;13.80;99.90
19829;DHT22;10075;50.924;4.396;2023-09-30T03:41:54;13.80;99.90
19829;DHT22;10075;50.924;4.396;2023-09-30T03:44:21;13.80;99.90
19829;DHT22;10075;50.924;4.396;2023-09-30T03:46:50;13.80;99.90
19829;DHT22;10075;50.924;4.396;2023-09-30T03:49:17;13.80;99.90
19829;DHT22;10075;50.924;4.396;2023-09-30T03:51:45;13.80;99.90
19829;DHT22;10075;50.924;4.396;2023-09-30T03:54:12;13.70;99.90
19829;DHT22;10075;50.924;4.396;2023-09-30T03:56:39;13.70;99.90
19829;DHT22;10075;50.924;4.396;2023-09-30T03:59:08;13.60;99.90
19829;DHT22;10075;50.924;4.396;2023-09-30T04:01:35;13.60;99.90
19829;DHT22;10075;50.924;4.396;2023-09-30T04:04:06;13.60;99.90
19829;DHT22;10075;50.924;4.396;2023-09-30T04:06:35;13.60;99.90
19829;DHT22;10075;50.924;4.396;2023-09-30T04:09:04;13.60;99.90
19829;DHT22;10075;50.924;4.396;2023-09-30T04:11:35;13.60;99.90
19829;DHT22;10075;50.924;4.396;2023-09-30T04:14:03;13.60;99.90
19829;DHT22;10075;50.924;4.396;2023-09-30T04:16:31;13.60;99.90
19829;DHT22;10075;50.924;4.396;2023-09-30T04:18:58;13.50;99.90
19829;DHT22;10075;50.924;4.396;2023-09-30T04:21:26;13.50;99.90
19829;DHT22;10075;50.924;4.396;2023-09-30T04:23:59;13.50;99.90
19829;DHT22;10075;50.924;4.396;2023-09-30T04:26:26;13.40;99.90
19829;DHT22;10075;50.924;4.396;2023-09-30T04:28:53;13.40;99.90
19829;DHT22;10075;50.924;4.396;2023-09-30T04:31:20;13.50;99.90
19829;DHT22;10075;50.924;4.396;2023-09-30T04:33:50;13.40;99.90
19829;DHT22;10075;50.924;4.396;2023-09-30T04:36:18;13.40;99.90
19829;DHT22;10075;50.924;4.396;2023-09-30T04:38:45;13.20;99.90
19829;DHT22;10075;50.924;4.396;2023-09-30T04:41:12;13.30;99.90
19829;DHT22;10075;50.924;4.396;2023-09-30T04:43:41;13.30;99.90
19829;DHT22;10075;50.924;4.396;2023-09-30T04:46:09;13.30;99.90
19829;DHT22;10075;50.924;4.396;2023-09-30T04:48:38;13.30;99.90
19829;DHT22;10075;50.924;4.396;2023-09-30T04:51:08;13.20;99.90
19829;DHT22;10075;50.924;4.396;2023-09-30T04:53:37;13.20;99.90
19829;DHT22;10075;50.924;4.396;2023-09-30T04:56:04;13.20;99.90
19829;DHT22;10075;50.924;4.396;2023-09-30T04:58:31;13.20;99.90
19829;DHT22;10075;50.924;4.396;2023-09-30T05:00:58;13.20;99.90
19829;DHT22;10075;50.924;4.396;2023-09-30T05:03:25;13.20;99.90
19829;DHT22;10075;50.924;4.396;2023-09-30T05:05:52;13.20;99.90
19829;DHT22;10075;50.924;4.396;2023-09-30T05:08:22;13.20;99.90
19829;DHT22;10075;50.924;4.396;2023-09-30T05:10:50;13.10;99.90
19829;DHT22;10075;50.924;4.396;2023-09-30T05:13:17;13.10;99.90
19829;DHT22;10075;50.924;4.396;2023-09-30T05:15:44;13.10;99.90
19829;DHT22;10075;50.924;4.396;2023-09-30T05:18:12;13.10;99.90
19829;DHT22;10075;50.924;4.396;2023-09-30T05:20:39;13.10;99.90
19829;DHT22;10075;50.924;4.396;2023-09-30T05:23:06;13.10;99.90
19829;DHT22;10075;50.924;4.396;2023-09-30T05:25:35;13.10;99.90
19829;DHT22;10075;50.924;4.396;2023-09-30T05:28:03;13.10;99.90
19829;DHT22;10075;50.924;4.396;2023-09-30T05:30:31;13.10;99.90
19829;DHT22;10075;50.924;4.396;2023-09-30T05:32:58;13.10;99.90
19829;DHT22;10075;50.924;4.396;2023-09-30T05:35:25;13.10;99.90
19829;DHT22;10075;50.924;4.396;2023-09-30T05:37:53;13.10;99.90
19829;DHT22;10075;50.924;4.396;2023-09-30T05:40:21;13.10;99.90
19829;DHT22;10075;50.924;4.396;2023-09-30T05:42:52;13.10;99.90
19829;DHT22;10075;50.924;4.396;2023-09-30T05:45:19;13.10;99.90
19829;DHT22;10075;50.924;4.396;2023-09-30T05:47:47;13.10;99.90
19829;DHT22;10075;50.924;4.396;2023-09-30T05:50:14;13.20;99.90
19829;DHT22;10075;50.924;4.396;2023-09-30T05:52:42;13.20;99.90
19829;DHT22;10075;50.924;4.396;2023-09-30T05:55:10;13.20;99.90
19829;DHT22;10075;50.924;4.396;2023-09-30T05:57:37;13.20;99.90
19829;DHT22;10075;50.924;4.396;2023-09-30T06:00:07;13.20;99.90
19829;DHT22;10075;50.924;4.396;2023-09-30T06:02:53;13.20;99.90
19829;DHT22;10075;50.924;4.396;2023-09-30T06:05:21;13.20;99.90
19829;DHT22;10075;50.924;4.396;2023-09-30T06:07:49;13.20;99.90
19829;DHT22;10075;50.924;4.396;2023-09-30T06:10:16;13.20;99.90
19829;DHT22;10075;50.924;4.396;2023-09-30T06:12:45;13.20;99.90
19829;DHT22;10075;50.924;4.396;2023-09-30T06:15:13;13.20;99.90
19829;DHT22;10075;50.924;4.396;2023-09-30T06:17:41;13.20;99.90
19829;DHT22;10075;50.924;4.396;2023-09-30T06:20:09;13.30;99.90
19829;DHT22;10075;50.924;4.396;2023-09-30T06:22:42;13.30;99.90
19829;DHT22;10075;50.924;4.396;2023-09-30T06:25:11;13.40;99.90
19829;DHT22;10075;50.924;4.396;2023-09-30T06:27:38;13.40;99.90
19829;DHT22;10075;50.924;4.396;2023-09-30T06:30:06;13.50;99.90
19829;DHT22;10075;50.924;4.396;2023-09-30T06:32:36;13.40;99.90
19829;DHT22;10075;50.924;4.396;2023-09-30T06:35:03;13.50;99.90
19829;DHT22;10075;50.924;4.396;2023-09-30T06:37:31;13.50;99.90
19829;DHT22;10075;50.924;4.396;2023-09-30T06:39:58;13.50;99.90
19829;DHT22;10075;50.924;4.396;2023-09-30T06:42:29;13.60;99.90
19829;DHT22;10075;50.924;4.396;2023-09-30T06:44:56;13.60;99.90
19829;DHT22;10075;50.924;4.396;2023-09-30T06:47:23;13.60;99.90
19829;DHT22;10075;50.924;4.396;2023-09-30T06:49:54;13.70;99.90
19829;DHT22;10075;50.924;4.396;2023-09-30T06:52:21;13.80;99.90
19829;DHT22;10075;50.924;4.396;2023-09-30T06:54:48;13.80;99.90
19829;DHT22;10075;50.924;4.396;2023-09-30T06:57:15;13.80;99.90
19829;DHT22;10075;50.924;4.396;2023-09-30T06:59:42;13.90;99.90
19829;DHT22;10075;50.924;4.396;2023-09-30T07:02:08;14.00;99.90
19829;DHT22;10075;50.924;4.396;2023-09-30T07:04:36;14.00;99.90
19829;DHT22;10075;50.924;4.396;2023-09-30T07:07:04;14.00;99.90
19829;DHT22;10075;50.924;4.396;2023-09-30T07:09:31;14.10;99.90
19829;DHT22;10075;50.924;4.396;2023-09-30T07:11:58;14.10;99.90
19829;DHT22;10075;50.924;4.396;2023-09-30T07:14:25;14.20;99.90
19829;DHT22;10075;50.924;4.396;2023-09-30T07:16:52;14.20;99.90
19829;DHT22;10075;50.924;4.396;2023-09-30T07:19:20;14.30;99.90
19829;DHT22;10075;50.924;4.396;2023-09-30T07:21:46;14.30;99.90
19829;DHT22;10075;50.924;4.396;2023-09-30T07:24:15;14.40;99.90
19829;DHT22;10075;50.924;4.396;2023-09-30T07:26:42;14.50;99.90
19829;DHT22;10075;50.924;4.396;2023-09-30T07:29:10;14.50;99.90
19829;DHT22;10075;50.924;4.396;2023-09-30T07:31:37;14.60;99.90
19829;DHT22;10075;50.924;4.396;2023-09-30T07:34:04;14.60;99.90
19829;DHT22;10075;50.924;4.396;2023-09-30T07:36:31;14.60;99.90
19829;DHT22;10075;50.924;4.396;2023-09-30T07:38:58;14.70;99.90
19829;DHT22;10075;50.924;4.396;2023-09-30T07:41:27;14.80;99.90
19829;DHT22;10075;50.924;4.396;2023-09-30T07:43:54;14.80;99.90
19829;DHT22;10075;50.924;4.396;2023-09-30T07:46:22;14.90;99.90
19829;DHT22;10075;50.924;4.396;2023-09-30T07:48:49;14.90;99.90
19829;DHT22;10075;50.924;4.396;2023-09-30T07:51:15;14.90;99.90
19829;DHT22;10075;50.924;4.396;2023-09-30T07:53:42;15.00;99.90
19829;DHT22;10075;50.924;4.396;2023-09-30T07:56:09;15.10;99.90
19829;DHT22;10075;50.924;4.396;2023-09-30T07:58:38;15.20;99.90
19829;DHT22;10075;50.924;4.396;2023-09-30T08:01:05;15.20;99.90
19829;DHT22;10075;50.924;4.396;2023-09-30T08:03:34;15.30;99.90
19829;DHT22;10075;50.924;4.396;2023-09-30T08:06:02;15.40;99.90
19829;DHT22;10075;50.924;4.396;2023-09-30T08:08:29;15.50;99.90
19829;DHT22;10075;50.924;4.396;2023-09-30T08:10:56;15.50;99.90
19829;DHT22;10075;50.924;4.396;2023-09-30T08:13:23;15.60;99.90
19829;DHT22;10075;50.924;4.396;2023-09-30T08:15:52;15.60;99.90
19829;DHT22;10075;50.924;4.396;2023-09-30T08:18:19;15.60;99.90
19829;DHT22;10075;50.924;4.396;2023-09-30T08:20:47;15.80;99.90
19829;DHT22;10075;50.924;4.396;2023-09-30T08:23:14;15.80;99.90
19829;DHT22;10075;50.924;4.396;2023-09-30T08:25:41;15.90;99.90
19829;DHT22;10075;50.924;4.396;2023-09-30T08:28:09;15.90;99.90
19829;DHT22;10075;50.924;4.396;2023-09-30T08:30:36;15.90;99.90
19829;DHT22;10075;50.924;4.396;2023-09-30T08:33:05;16.00;99.90
19829;DHT22;10075;50.924;4.396;2023-09-30T08:35:35;16.10;99.90
19829;DHT22;10075;50.924;4.396;2023-09-30T08:38:03;16.10;99.90
19829;DHT22;10075;50.924;4.396;2023-09-30T08:40:31;16.10;99.90
19829;DHT22;10075;50.924;4.396;2023-09-30T08:42:58;16.20;99.90
19829;DHT22;10075;50.924;4.396;2023-09-30T08:45:28;16.30;99.90
19829;DHT22;10075;50.924;4.396;2023-09-30T08:47:57;16.40;99.90
19829;DHT22;10075;50.924;4.396;2023-09-30T08:50:31;16.40;99.90
19829;DHT22;10075;50.924;4.396;2023-09-30T08:52:58;16.50;99.90
19829;DHT22;10075;50.924;4.396;2023-09-30T08:55:27;16.50;99.90
19829;DHT22;10075;50.924;4.396;2023-09-30T08:57:55;16.60;99.90
19829;DHT22;10075;50.924;4.396;2023-09-30T09:00:23;16.60;99.90
19829;DHT22;10075;50.924;4.396;2023-09-30T09:02:50;16.70;99.90
19829;DHT22;10075;50.924;4.396;2023-09-30T09:05:17;16.80;99.90
19829;DHT22;10075;50.924;4.396;2023-09-30T09:07:45;16.90;99.90
19829;DHT22;10075;50.924;4.396;2023-09-30T09:10:13;17.00;99.90
19829;DHT22;10075;50.924;4.396;2023-09-30T09:12:40;17.00;99.90
19829;DHT22;10075;50.924;4.396;2023-09-30T09:15:19;17.00;99.90
19829;DHT22;10075;50.924;4.396;2023-09-30T09:17:46;17.10;99.90
19829;DHT22;10075;50.924;4.396;2023-09-30T09:20:17;17.20;99.90
19829;DHT22;10075;50.924;4.396;2023-09-30T09:22:48;17.20;99.90
19829;DHT22;10075;50.924;4.396;2023-09-30T09:25:16;17.20;99.90
19829;DHT22;10075;50.924;4.396;2023-09-30T09:27:43;17.40;99.90
19829;DHT22;10075;50.924;4.396;2023-09-30T09:30:17;17.50;99.90
19829;DHT22;10075;50.924;4.396;2023-09-30T09:33:00;17.60;99.90
19829;DHT22;10075;50.924;4.396;2023-09-30T09:35:29;17.60;99.90
19829;DHT22;10075;50.924;4.396;2023-09-30T09:38:00;17.70;99.90
19829;DHT22;10075;50.924;4.396;2023-09-30T09:40:29;17.70;99.90
19829;DHT22;10075;50.924;4.396;2023-09-30T09:42:56;17.80;99.90
19829;DHT22;10075;50.924;4.396;2023-09-30T09:45:25;17.90;99.90
19829;DHT22;10075;50.924;4.396;2023-09-30T09:47:53;17.90;99.90
19829;DHT22;10075;50.924;4.396;2023-09-30T09:50:21;17.90;99.90
19829;DHT22;10075;50.924;4.396;2023-09-30T09:52:49;18.00;99.90
19829;DHT22;10075;50.924;4.396;2023-09-30T09:55:19;18.20;99.90
19829;DHT22;10075;50.924;4.396;2023-09-30T09:57:48;18.30;99.90
19829;DHT22;10075;50.924;4.396;2023-09-30T10:00:17;18.40;99.90
19829;DHT22;10075;50.924;4.396;2023-09-30T10:02:45;18.40;99.90
19829;DHT22;10075;50.924;4.396;2023-09-30T10:05:13;18.40;99.90
19829;DHT22;10075;50.924;4.396;2023-09-30T10:07:44;18.40;99.90
19829;DHT22;10075;50.924;4.396;2023-09-30T10:10:15;18.40;99.90
19829;DHT22;10075;50.924;4.396;2023-09-30T10:12:44;18.50;99.90
19829;DHT22;10075;50.924;4.396;2023-09-30T10:15:34;18.50;99.90
19829;DHT22;10075;50.924;4.396;2023-09-30T10:18:03;18.60;99.90
19829;DHT22;10075;50.924;4.396;2023-09-30T10:20:33;18.60;99.90
19829;DHT22;10075;50.924;4.396;2023-09-30T10:23:33;18.60;99.90
19829;DHT22;10075;50.924;4.396;2023-09-30T10:26:14;18.70;99.90
19829;DHT22;10075;50.924;4.396;2023-09-30T10:28:45;18.80;99.90
19829;DHT22;10075;50.924;4.396;2023-09-30T10:31:16;18.70;99.90
19829;DHT22;10075;50.924;4.396;2023-09-30T10:34:19;18.80;99.90
19829;DHT22;10075;50.924;4.396;2023-09-30T10:36:48;18.90;99.90
19829;DHT22;10075;50.924;4.396;2023-09-30T10:39:55;19.00;99.90
19829;DHT22;10075;50.924;4.396;2023-09-30T10:43:32;19.20;99.90
19829;DHT22;10075;50.924;4.396;2023-09-30T10:45:59;19.30;99.90
19829;DHT22;10075;50.924;4.396;2023-09-30T10:48:33;19.30;99.90
19829;DHT22;10075;50.924;4.396;2023-09-30T10:51:01;19.40;99.90
19829;DHT22;10075;50.924;4.396;2023-09-30T10:53:45;19.50;99.90
19829;DHT22;10075;50.924;4.396;2023-09-30T10:56:12;19.60;99.90
19829;DHT22;10075;50.924;4.396;2023-09-30T10:58:42;19.60;99.90
19829;DHT22;10075;50.924;4.396;2023-09-30T11:01:09;19.60;99.90
19829;DHT22;10075;50.924;4.396;2023-09-30T11:03:36;19.60;99.90
19829;DHT22;10075;50.924;4.396;2023-09-30T11:06:03;19.70;99.90
19829;DHT22;10075;50.924;4.396;2023-09-30T11:08:31;19.90;99.90
19829;DHT22;10075;50.924;4.396;2023-09-30T11:10:59;20.10;99.90
19829;DHT22;10075;50.924;4.396;2023-09-30T11:13:32;20.30;99.90
19829;DHT22;10075;50.924;4.396;2023-09-30T11:16:02;20.50;99.90
19829;DHT22;10075;50.924;4.396;2023-09-30T11:18:30;20.70;99.90
19829;DHT22;10075;50.924;4.396;2023-09-30T11:21:05;20.70;99.90
19829;DHT22;10075;50.924;4.396;2023-09-30T11:23:33;20.70;99.90
19829;DHT22;10075;50.924;4.396;2023-09-30T11:26:00;20.70;99.90
19829;DHT22;10075;50.924;4.396;2023-09-30T11:28:36;20.70;99.90
19829;DHT22;10075;50.924;4.396;2023-09-30T11:31:08;20.80;99.90
19829;DHT22;10075;50.924;4.396;2023-09-30T11:33:47;20.90;99.90
19829;DHT22;10075;50.924;4.396;2023-09-30T11:36:15;21.10;99.90
19829;DHT22;10075;50.924;4.396;2023-09-30T11:38:45;21.10;99.90
19829;DHT22;10075;50.924;4.396;2023-09-30T11:41:13;21.10;99.90
19829;DHT22;10075;50.924;4.396;2023-09-30T11:43:58;21.10;99.90
19829;DHT22;10075;50.924;4.396;2023-09-30T11:46:28;21.20;99.90
19829;DHT22;10075;50.924;4.396;2023-09-30T11:48:59;21.20;99.90
19829;DHT22;10075;50.924;4.396;2023-09-30T11:51:27;21.30;99.90
19829;DHT22;10075;50.924;4.396;2023-09-30T11:53:54;21.40;99.90
19829;DHT22;10075;50.924;4.396;2023-09-30T11:56:23;21.50;99.90
19829;DHT22;10075;50.924;4.396;2023-09-30T11:58:55;21.60;99.90
19829;DHT22;10075;50.924;4.396;2023-09-30T12:01:22;21.80;99.90
19829;DHT22;10075;50.924;4.396;2023-09-30T12:03:52;21.70;99.90
19829;DHT22;10075;50.924;4.396;2023-09-30T12:06:22;21.70;99.90
19829;DHT22;10075;50.924;4.396;2023-09-30T12:08:49;21.80;99.90
19829;DHT22;10075;50.924;4.396;2023-09-30T12:11:17;22.00;99.90
19829;DHT22;10075;50.924;4.396;2023-09-30T12:13:44;22.00;99.90
19829;DHT22;10075;50.924;4.396;2023-09-30T12:16:14;22.00;99.90
19829;DHT22;10075;50.924;4.396;2023-09-30T12:18:41;21.90;99.90
19829;DHT22;10075;50.924;4.396;2023-09-30T12:21:09;21.90;99.90
19829;DHT22;10075;50.924;4.396;2023-09-30T12:23:37;21.90;99.90
19829;DHT22;10075;50.924;4.396;2023-09-30T12:26:04;21.80;99.90
19829;DHT22;10075;50.924;4.396;2023-09-30T12:28:31;21.70;99.90
19829;DHT22;10075;50.924;4.396;2023-09-30T12:30:59;21.70;99.90
19829;DHT22;10075;50.924;4.396;2023-09-30T12:33:28;21.70;99.90
19829;DHT22;10075;50.924;4.396;2023-09-30T12:35:56;21.80;99.90
19829;DHT22;10075;50.924;4.396;2023-09-30T12:38:25;21.90;99.90
19829;DHT22;10075;50.924;4.396;2023-09-30T12:40:54;22.20;99.90
19829;DHT22;10075;50.924;4.396;2023-09-30T12:43:21;22.30;99.90
19829;DHT22;10075;50.924;4.396;2023-09-30T12:45:48;22.30;99.90
19829;DHT22;10075;50.924;4.396;2023-09-30T12:48:15;22.40;99.90
19829;DHT22;10075;50.924;4.396;2023-09-30T12:50:43;22.60;99.90
19829;DHT22;10075;50.924;4.396;2023-09-30T12:53:10;22.60;99.90
19829;DHT22;10075;50.924;4.396;2023-09-30T12:55:38;22.70;99.90
19829;DHT22;10075;50.924;4.396;2023-09-30T12:58:05;22.80;99.90
19829;DHT22;10075;50.924;4.396;2023-09-30T13:00:34;22.90;99.90
19829;DHT22;10075;50.924;4.396;2023-09-30T13:03:01;23.00;99.90
19829;DHT22;10075;50.924;4.396;2023-09-30T13:05:29;23.10;99.90
19829;DHT22;10075;50.924;4.396;2023-09-30T13:07:56;23.00;99.90
19829;DHT22;10075;50.924;4.396;2023-09-30T13:10:23;22.90;99.90
19829;DHT22;10075;50.924;4.396;2023-09-30T13:12:52;22.80;99.90
19829;DHT22;10075;50.924;4.396;2023-09-30T13:15:19;22.80;99.90
19829;DHT22;10075;50.924;4.396;2023-09-30T13:17:47;22.80;99.90
19829;DHT22;10075;50.924;4.396;2023-09-30T13:20:14;22.90;99.90
19829;DHT22;10075;50.924;4.396;2023-09-30T13:22:41;23.00;99.90
19829;DHT22;10075;50.924;4.396;2023-09-30T13:25:08;23.00;99.90
19829;DHT22;10075;50.924;4.396;2023-09-30T13:27:38;23.10;99.90
19829;DHT22;10075;50.924;4.396;2023-09-30T13:30:07;23.20;99.90
19829;DHT22;10075;50.924;4.396;2023-09-30T13:32:36;23.30;99.90
19829;DHT22;10075;50.924;4.396;2023-09-30T13:35:03;23.30;99.90
19829;DHT22;10075;50.924;4.396;2023-09-30T13:37:31;23.50;99.90
19829;DHT22;10075;50.924;4.396;2023-09-30T13:39:59;23.60;99.90
19829;DHT22;10075;50.924;4.396;2023-09-30T13:42:27;23.70;99.90
19829;DHT22;10075;50.924;4.396;2023-09-30T13:44:54;23.70;99.90
19829;DHT22;10075;50.924;4.396;2023-09-30T13:47:24;23.60;99.90
19829;DHT22;10075;50.924;4.396;2023-09-30T13:49:52;23.70;99.90
19829;DHT22;10075;50.924;4.396;2023-09-30T13:52:20;23.60;99.90
19829;DHT22;10075;50.924;4.396;2023-09-30T13:54:47;23.70;99.90
19829;DHT22;10075;50.924;4.396;2023-09-30T13:57:14;23.70;99.90
19829;DHT22;10075;50.924;4.396;2023-09-30T13:59:41;23.60;99.90
19829;DHT22;10075;50.924;4.396;2023-09-30T14:02:08;23.50;99.90
19829;DHT22;10075;50.924;4.396;2023-09-30T14:04:37;23.40;99.90
19829;DHT22;10075;50.924;4.396;2023-09-30T14:07:04;23.40;99.90
19829;DHT22;10075;50.924;4.396;2023-09-30T14:09:33;23.50;99.90
19829;DHT22;10075;50.924;4.396;2023-09-30T14:12:01;23.60;99.90
19829;DHT22;10075;50.924;4.396;2023-09-30T14:14:31;23.70;99.90
19829;DHT22;10075;50.924;4.396;2023-09-30T14:16:59;23.80;99.90
19829;DHT22;10075;50.924;4.396;2023-09-30T14:19:33;23.90;99.90
19829;DHT22;10075;50.924;4.396;2023-09-30T14:22:01;24.00;99.90
19829;DHT22;10075;50.924;4.396;2023-09-30T14:24:29;24.00;99.90
19829;DHT22;10075;50.924;4.396;2023-09-30T14:26:56;24.00;99.90
19829;DHT22;10075;50.924;4.396;2023-09-30T14:29:24;24.20;99.90
19829;DHT22;10075;50.924;4.396;2023-09-30T14:31:51;24.20;99.90
19829;DHT22;10075;50.924;4.396;2023-09-30T14:34:18;24.10;99.90
19829;DHT22;10075;50.924;4.396;2023-09-30T14:36:45;24.00;99.60
19829;DHT22;10075;50.924;4.396;2023-09-30T14:39:14;23.80;98.60
19829;DHT22;10075;50.924;4.396;2023-09-30T14:41:42;23.70;99.90
19829;DHT22;10075;50.924;4.396;2023-09-30T14:44:09;23.60;99.90
19829;DHT22;10075;50.924;4.396;2023-09-30T14:46:37;23.60;99.90
19829;DHT22;10075;50.924;4.396;2023-09-30T14:49:05;23.60;99.90
19829;DHT22;10075;50.924;4.396;2023-09-30T14:51:33;23.70;99.90
19829;DHT22;10075;50.924;4.396;2023-09-30T14:53:59;23.70;99.90
19829;DHT22;10075;50.924;4.396;2023-09-30T14:56:28;23.80;99.90
19829;DHT22;10075;50.924;4.396;2023-09-30T14:58:55;24.00;99.90
19829;DHT22;10075;50.924;4.396;2023-09-30T15:01:22;24.30;99.60
19829;DHT22;10075;50.924;4.396;2023-09-30T15:03:49;24.90;98.90
19829;DHT22;10075;50.924;4.396;2023-09-30T15:06:17;25.50;97.90
19829;DHT22;10075;50.924;4.396;2023-09-30T15:08:43;26.10;96.90
19829;DHT22;10075;50.924;4.396;2023-09-30T15:11:14;26.80;97.10
19829;DHT22;10075;50.924;4.396;2023-09-30T15:13:43;27.50;95.50
19829;DHT22;10075;50.924;4.396;2023-09-30T15:16:16;27.90;95.40
19829;DHT22;10075;50.924;4.396;2023-09-30T15:18:44;28.30;94.60
19829;DHT22;10075;50.924;4.396;2023-09-30T15:21:11;28.40;94.60
19829;DHT22;10075;50.924;4.396;2023-09-30T15:23:38;28.50;94.20
19829;DHT22;10075;50.924;4.396;2023-09-30T15:26:05;28.50;93.60
19829;DHT22;10075;50.924;4.396;2023-09-30T15:28:32;28.30;92.70
19829;DHT22;10075;50.924;4.396;2023-09-30T15:31:01;28.00;92.90
19829;DHT22;10075;50.924;4.396;2023-09-30T15:33:28;27.50;93.60
19829;DHT22;10075;50.924;4.396;2023-09-30T15:35:55;27.10;94.40
19829;DHT22;10075;50.924;4.396;2023-09-30T15:38:22;26.60;94.80
19829;DHT22;10075;50.924;4.396;2023-09-30T15:40:54;26.20;95.70